createdAt,value
2019-04-14T00:02:38.258Z,38.74
2019-04-14T00:07:42.677Z,41.47
2019-04-14T00:12:47.062Z,38.88
2019-04-14T00:17:50.927Z,37.35
2019-04-14T00:22:55.199Z,40.28
2019-04-14T00:27:59.116Z,37.98
2019-04-14T00:33:04.358Z,36.80
2019-04-14T00:38:26.034Z,39.38
2019-04-14T00:43:52.808Z,37.60
2019-04-14T00:48:56.062Z,34.58
2019-04-14T00:54:00.188Z,32.45
2019-04-14T00:59:03.593Z,27.75
2019-04-14T01:04:07.686Z,28.80
2019-04-14T01:09:13.596Z,28.83
2019-04-14T01:14:17.023Z,24.27
2019-04-14T01:19:20.287Z,23.77
2019-04-14T01:24:23.524Z,23.70
2019-04-14T01:29:27.681Z,21.10
2019-04-14T01:34:32.323Z,19.67
2019-04-14T01:39:35.705Z,20.62
2019-04-14T01:44:39.591Z,17.67
2019-04-14T01:49:44.301Z,15.20
2019-04-14T01:55:17.675Z,14.98
2019-04-14T02:00:40.183Z,14.15
2019-04-14T02:05:43.576Z,14.47
2019-04-14T02:10:47.819Z,16.05
2019-04-14T02:15:51.127Z,14.40
2019-04-14T02:20:55.753Z,15.08
2019-04-14T02:26:00.120Z,14.95
2019-04-14T02:31:20.500Z,14.70
2019-04-14T02:41:49.343Z,12.77
2019-04-14T02:51:54.046Z,13.40
2019-04-14T02:57:03.530Z,11.93
2019-04-14T03:02:20.213Z,12.03
2019-04-14T03:07:05.316Z,11.70
2019-04-14T03:12:09.656Z,11.53
2019-04-14T03:18:00.534Z,11.85
2019-04-14T03:22:56.036Z,11.18
2019-04-14T03:28:39.802Z,11.00
2019-04-14T03:38:50.254Z,9.83
2019-04-14T03:44:09.838Z,10.63
2019-04-14T03:58:31.466Z,9.85
2019-04-14T04:03:34.706Z,9.85
2019-04-14T04:08:37.790Z,9.30
2019-04-14T04:13:41.241Z,10.58
2019-04-14T04:18:54.565Z,11.22
2019-04-14T04:24:10.668Z,9.40
2019-04-14T04:29:17.966Z,8.78
2019-04-14T04:34:53.432Z,9.78
2019-04-14T04:39:58.499Z,9.13
2019-04-14T04:45:01.859Z,8.55
2019-04-14T04:50:06.441Z,9.15
2019-04-14T04:55:09.756Z,8.53
2019-04-14T05:00:13.477Z,9.28
2019-04-14T05:06:15.512Z,8.55
2019-04-14T05:11:29.691Z,8.73
2019-04-14T05:16:32.883Z,9.43
2019-04-14T05:21:36.651Z,8.50
2019-04-14T05:26:39.814Z,9.18
2019-04-14T05:31:43.147Z,7.92
2019-04-14T05:36:47.634Z,7.40
2019-04-14T05:42:00.333Z,9.55
2019-04-14T05:46:56.039Z,9.70
2019-04-14T05:51:59.233Z,8.78
2019-04-14T05:57:02.453Z,8.75
2019-04-14T06:02:05.696Z,8.80
2019-04-14T06:07:08.739Z,8.63
2019-04-14T06:12:11.966Z,9.48
2019-04-14T06:17:15.333Z,8.65
2019-04-14T06:22:18.384Z,8.40
2019-04-14T06:27:21.958Z,8.68
2019-04-14T06:32:50.984Z,8.68
2019-04-14T06:37:57.619Z,8.28
2019-04-14T06:43:01.022Z,8.43
2019-04-14T06:48:04.121Z,7.05
2019-04-14T06:53:07.171Z,8.57
2019-04-14T06:58:10.409Z,8.58
2019-04-14T07:03:13.546Z,7.83
2019-04-14T07:08:16.679Z,7.55
2019-04-14T07:13:19.978Z,8.45
2019-04-14T07:18:23.405Z,8.57
2019-04-14T07:23:26.462Z,7.97
2019-04-14T07:28:29.838Z,8.45
2019-04-14T07:33:48.461Z,9.48
2019-04-14T07:39:14.195Z,9.05
2019-04-14T07:44:29.212Z,7.55
2019-04-14T07:49:58.455Z,8.80
2019-04-14T07:55:08.214Z,8.23
2019-04-14T08:00:15.205Z,9.93
2019-04-14T08:05:21.666Z,7.87
2019-04-14T08:10:24.722Z,9.43
2019-04-14T08:15:27.854Z,9.53
2019-04-14T08:20:31.243Z,9.58
2019-04-14T08:25:34.343Z,10.20
2019-04-14T08:30:37.463Z,8.10
2019-04-14T08:35:40.784Z,10.18
2019-04-14T08:40:44.205Z,9.43
2019-04-14T08:45:54.447Z,10.05
2019-04-14T08:51:02.682Z,9.40
2019-04-14T08:56:36.680Z,9.75
2019-04-14T09:02:08.244Z,8.73
2019-04-14T09:07:16.421Z,8.75
2019-04-14T09:12:23.472Z,10.03
2019-04-14T09:17:28.041Z,10.70
2019-04-14T09:22:31.150Z,10.28
2019-04-14T09:27:34.241Z,9.60
2019-04-14T09:32:37.384Z,10.00
2019-04-14T09:37:40.475Z,9.53
2019-04-14T09:42:43.607Z,10.55
2019-04-14T09:47:46.993Z,10.78
2019-04-14T09:52:50.190Z,10.85
2019-04-14T09:57:53.317Z,10.23
2019-04-14T10:02:56.408Z,8.98
2019-04-14T10:08:00.065Z,9.63
2019-04-14T10:13:03.518Z,9.73
2019-04-14T10:18:06.581Z,8.83
2019-04-14T10:23:09.804Z,9.03
2019-04-14T10:28:12.912Z,10.30
2019-04-14T10:33:16.404Z,8.47
2019-04-14T10:38:19.458Z,9.93
2019-04-14T10:43:22.853Z,8.85
2019-04-14T10:48:26.010Z,8.18
2019-04-14T10:53:29.160Z,8.58
2019-04-14T10:58:32.287Z,7.83
2019-04-14T11:03:35.341Z,9.08
2019-04-14T11:08:38.516Z,8.23
2019-04-14T11:13:41.596Z,7.08
2019-04-14T11:18:44.663Z,8.68
2019-04-14T11:23:47.861Z,7.42
2019-04-14T11:28:50.914Z,8.00
2019-04-14T11:34:01.175Z,8.08
2019-04-14T11:39:08.623Z,6.87
2019-04-14T11:44:11.978Z,6.67
2019-04-14T11:49:15.084Z,7.20
2019-04-14T11:54:18.155Z,7.28
2019-04-14T11:59:30.428Z,6.58
2019-04-14T12:04:40.403Z,6.58
2019-04-14T12:09:55.335Z,7.25
2019-04-14T12:14:58.399Z,7.53
2019-04-14T12:20:01.571Z,7.22
2019-04-14T12:25:06.390Z,6.28
2019-04-14T12:30:11.669Z,7.30
2019-04-14T12:35:15.639Z,6.83
2019-04-14T12:40:19.289Z,6.70
2019-04-14T12:45:40.602Z,6.50
2019-04-14T12:50:56.530Z,7.60
2019-04-14T12:55:59.671Z,8.33
2019-04-14T13:01:07.668Z,7.40
2019-04-14T13:06:10.846Z,7.28
2019-04-14T13:11:13.947Z,7.60
2019-04-14T13:16:17.083Z,7.28
2019-04-14T13:21:20.208Z,6.72
2019-04-14T13:26:23.492Z,7.47
2019-04-14T13:31:27.330Z,6.35
2019-04-14T13:36:30.861Z,6.28
2019-04-14T13:41:34.356Z,6.80
2019-04-14T13:46:37.502Z,6.83
2019-04-14T13:51:40.565Z,6.70
2019-04-14T13:56:43.659Z,5.90
2019-04-14T14:01:46.909Z,6.00
2019-04-14T14:06:50.023Z,7.37
2019-04-14T14:12:16.434Z,6.50
2019-04-14T14:17:26.234Z,7.03
2019-04-14T14:22:45.305Z,6.80
2019-04-14T14:27:48.354Z,6.95
2019-04-14T14:32:51.453Z,5.40
2019-04-14T14:37:54.525Z,6.97
2019-04-14T14:42:57.997Z,6.10
2019-04-14T14:48:20.742Z,5.90
2019-04-14T14:53:24.065Z,5.30
2019-04-14T14:58:27.329Z,5.67
2019-04-14T15:03:30.608Z,6.80
2019-04-14T15:08:33.668Z,5.37
2019-04-14T15:13:36.840Z,5.17
2019-04-14T15:18:40.235Z,5.97
2019-04-14T15:23:43.342Z,5.20
2019-04-14T15:28:46.523Z,4.37
2019-04-14T15:33:49.668Z,5.10
2019-04-14T15:38:52.882Z,4.95
2019-04-14T15:43:56.039Z,5.40
2019-04-14T15:48:59.237Z,5.15
2019-04-14T15:54:02.555Z,4.00
2019-04-14T15:59:25.179Z,4.00
2019-04-14T16:04:35.103Z,4.10
2019-04-14T16:10:00.579Z,4.20
2019-04-14T16:15:15.110Z,4.20
2019-04-14T16:20:22.387Z,4.45
2019-04-14T16:25:37.878Z,4.92
2019-04-14T16:31:06.415Z,4.65
2019-04-14T16:36:09.805Z,4.30
2019-04-14T16:41:12.871Z,4.22
2019-04-14T16:46:16.084Z,4.00
2019-04-14T16:51:24.766Z,4.28
2019-04-14T16:56:53.053Z,4.17
2019-04-14T17:01:56.244Z,3.15
2019-04-14T17:06:59.806Z,4.53
2019-04-14T17:12:03.012Z,4.53
2019-04-14T17:17:22.388Z,4.92
2019-04-14T17:22:44.295Z,5.08
2019-04-14T17:28:01.632Z,5.10
2019-04-14T17:33:32.581Z,4.60
2019-04-14T17:38:40.646Z,4.90
2019-04-14T17:43:49.383Z,5.42
2019-04-14T17:49:30.420Z,5.10
2019-04-14T17:54:56.268Z,5.70
2019-04-14T18:00:13.503Z,6.40
2019-04-14T18:05:24.839Z,7.08
2019-04-14T18:10:56.598Z,5.83
2019-04-14T18:16:06.633Z,5.60
2019-04-14T18:21:11.243Z,6.78
2019-04-14T18:26:14.774Z,6.67
2019-04-14T18:31:22.811Z,6.70
2019-04-14T18:36:32.927Z,6.72
2019-04-14T18:41:46.382Z,5.55
2019-04-14T18:47:07.908Z,5.80
2019-04-14T18:52:16.764Z,5.37
2019-04-14T18:57:31.480Z,6.08
2019-04-14T19:02:35.354Z,5.87
2019-04-14T19:07:38.481Z,5.50
2019-04-14T19:13:10.854Z,5.80
2019-04-14T19:18:25.702Z,5.50
2019-04-14T19:23:29.103Z,6.67
2019-04-14T19:28:32.262Z,6.90
2019-04-14T19:33:35.582Z,7.15
2019-04-14T19:38:38.734Z,6.42
2019-04-14T19:43:42.011Z,6.70
2019-04-14T19:48:45.127Z,6.92
2019-04-14T19:53:48.257Z,8.30
2019-04-14T19:58:51.533Z,7.35
2019-04-14T20:03:54.683Z,7.50
2019-04-14T20:08:57.886Z,7.08
2019-04-14T20:14:01.497Z,6.37
2019-04-14T20:19:39.022Z,5.92
2019-04-14T20:24:50.116Z,6.17
2019-04-14T20:29:54.721Z,4.08
2019-04-14T20:34:57.897Z,6.12
2019-04-14T20:40:01.201Z,6.70
2019-04-14T20:45:07.322Z,5.75
2019-04-14T20:50:10.976Z,5.30
2019-04-14T20:55:14.467Z,5.87
2019-04-14T21:00:20.650Z,6.08
2019-04-14T21:05:40.124Z,5.80
2019-04-14T21:11:01.180Z,6.30
2019-04-14T21:16:26.990Z,6.30
2019-04-14T21:21:35.957Z,6.42
2019-04-14T21:26:46.949Z,6.25
2019-04-14T21:32:15.959Z,5.47
2019-04-14T21:37:45.374Z,6.53
2019-04-14T21:42:48.634Z,6.50
2019-04-14T21:47:51.897Z,6.85
2019-04-14T21:52:56.035Z,6.67
2019-04-14T21:58:15.548Z,7.03
2019-04-14T22:03:47.330Z,6.42
2019-04-14T22:08:52.387Z,7.20
2019-04-14T22:13:55.875Z,6.17
2019-04-14T22:18:59.687Z,5.65
2019-04-14T22:24:02.963Z,6.70
2019-04-14T22:29:06.069Z,7.22
2019-04-14T22:34:09.215Z,6.40
2019-04-14T22:39:14.597Z,7.15
2019-04-14T22:44:17.806Z,7.50
2019-04-14T22:49:20.983Z,7.30
2019-04-14T22:54:24.074Z,7.30
2019-04-14T22:59:27.301Z,7.05
2019-04-14T23:04:46.338Z,6.20
2019-04-14T23:10:12.127Z,7.08
2019-04-14T23:15:43.660Z,6.85
2019-04-14T23:20:51.853Z,7.15
2019-04-14T23:25:55.125Z,6.25
2019-04-14T23:31:01.438Z,6.62
2019-04-14T23:36:03.638Z,7.15
2019-04-14T23:41:06.779Z,6.83
2019-04-14T23:46:10.060Z,6.15
2019-04-14T23:51:13.626Z,6.95
2019-04-14T23:56:16.689Z,7.50
